METAR Data
IDs: Format: Raw Decoded Include TAF

Data at: 0156 UTC 20 Jul 2019

METAR for:KSPB (Scappoose Ind Airpar, OR, US)
Text:KSPB 200153Z AUTO 34009KT 10SM CLR 23/07 A3004 RMK AO2 SLP172 T02280067
Temperature: 22.8°C ( 73°F)
Dewpoint: 6.7°C ( 44°F) [RH = 35%]
Pressure (altimeter):30.04 inches Hg (1017.4 mb) [Sea level pressure: 1017.2 mb]
Winds:from the NNW (340 degrees) at 10 MPH (9 knots; 4.6 m/s)
Visibility:10 or more sm (16+ km)
Ceiling:at least 12,000 feet AGL
Clouds:sky clear below 12,000 feet AGL
QC Flag:automated observation with no human augmentation